sensor_id;sensor_type;location;lat;lon;timestamp;pressure;altitude;pressure_sealevel;temperature
24586;BMP280;12743;52.262;6.172;2023-03-01T00:01:26;102004.97;;;-0.94
24586;BMP280;12743;52.262;6.172;2023-03-01T00:03:54;102148.81;;;-0.02
24586;BMP280;12743;52.262;6.172;2023-03-01T00:06:22;102018.78;;;-0.88
24586;BMP280;12743;52.262;6.172;2023-03-01T00:08:49;102004.59;;;-0.97
24586;BMP280;12743;52.262;6.172;2023-03-01T00:11:27;102113.38;;;-0.20
24586;BMP280;12743;52.262;6.172;2023-03-01T00:13:57;102050.34;;;-0.62
24586;BMP280;12743;52.262;6.172;2023-03-01T00:16:30;102027.84;;;-0.79
24586;BMP280;12743;52.262;6.172;2023-03-01T00:18:57;102055.41;;;-0.73
24586;BMP280;12743;52.262;6.172;2023-03-01T00:21:25;102036.00;;;-0.82
24586;BMP280;12743;52.262;6.172;2023-03-01T00:23:53;102073.91;;;-0.52
24586;BMP280;12743;52.262;6.172;2023-03-01T00:26:21;101876.28;;;-1.58
24586;BMP280;12743;52.262;6.172;2023-03-01T00:28:48;102022.31;;;-0.83
24586;BMP280;12743;52.262;6.172;2023-03-01T00:31:20;102061.97;;;-0.77
24586;BMP280;12743;52.262;6.172;2023-03-01T00:33:47;101999.50;;;-1.11
24586;BMP280;12743;52.262;6.172;2023-03-01T00:36:15;102162.56;;;-0.08
24586;BMP280;12743;52.262;6.172;2023-03-01T00:38:44;102121.91;;;-0.19
24586;BMP280;12743;52.262;6.172;2023-03-01T00:41:15;101863.78;;;-1.92
24586;BMP280;12743;52.262;6.172;2023-03-01T00:43:43;102034.41;;;-0.77
24586;BMP280;12743;52.262;6.172;2023-03-01T00:46:16;102067.34;;;-0.23
24586;BMP280;12743;52.262;6.172;2023-03-01T00:48:44;101922.16;;;-1.42
24586;BMP280;12743;52.262;6.172;2023-03-01T00:51:20;102028.22;;;-0.76
24586;BMP280;12743;52.262;6.172;2023-03-01T00:53:52;101854.91;;;-2.03
24586;BMP280;12743;52.262;6.172;2023-03-01T00:56:20;102053.25;;;-0.83
24586;BMP280;12743;52.262;6.172;2023-03-01T00:58:47;102091.91;;;-0.70
24586;BMP280;12743;52.262;6.172;2023-03-01T01:01:19;102089.13;;;-0.75
24586;BMP280;12743;52.262;6.172;2023-03-01T01:03:50;102027.22;;;-1.06
24586;BMP280;12743;52.262;6.172;2023-03-01T01:06:29;102002.66;;;-1.09
24586;BMP280;12743;52.262;6.172;2023-03-01T01:08:57;102079.00;;;-0.45
24586;BMP280;12743;52.262;6.172;2023-03-01T01:11:25;102047.16;;;-0.88
24586;BMP280;12743;52.262;6.172;2023-03-01T01:13:52;101829.75;;;-2.01
24586;BMP280;12743;52.262;6.172;2023-03-01T01:16:21;102066.44;;;-0.35
24586;BMP280;12743;52.262;6.172;2023-03-01T01:18:48;101925.69;;;-1.30
24586;BMP280;12743;52.262;6.172;2023-03-01T01:21:18;101919.53;;;-1.35
24586;BMP280;12743;52.262;6.172;2023-03-01T01:23:45;101950.56;;;-0.92
24586;BMP280;12743;52.262;6.172;2023-03-01T01:26:22;102038.25;;;-0.61
24586;BMP280;12743;52.262;6.172;2023-03-01T01:28:49;101889.19;;;-1.65
24586;BMP280;12743;52.262;6.172;2023-03-01T01:31:17;101789.88;;;-2.23
24586;BMP280;12743;52.262;6.172;2023-03-01T01:33:44;101991.03;;;-1.18
24586;BMP280;12743;52.262;6.172;2023-03-01T01:36:12;102002.50;;;-1.14
24586;BMP280;12743;52.262;6.172;2023-03-01T01:38:39;101819.97;;;-2.24
24586;BMP280;12743;52.262;6.172;2023-03-01T01:41:10;101913.94;;;-1.57
24586;BMP280;12743;52.262;6.172;2023-03-01T01:43:43;101809.34;;;-2.47
24586;BMP280;12743;52.262;6.172;2023-03-01T01:46:31;101849.34;;;-2.00
24586;BMP280;12743;52.262;6.172;2023-03-01T01:49:03;102061.34;;;-0.73
24586;BMP280;12743;52.262;6.172;2023-03-01T01:51:35;101993.22;;;-1.21
24586;BMP280;12743;52.262;6.172;2023-03-01T01:54:12;101896.84;;;-1.89
24586;BMP280;12743;52.262;6.172;2023-03-01T01:56:42;101957.03;;;-1.33
24586;BMP280;12743;52.262;6.172;2023-03-01T01:59:11;101853.75;;;-2.07
24586;BMP280;12743;52.262;6.172;2023-03-01T02:01:38;102014.78;;;-1.16
24586;BMP280;12743;52.262;6.172;2023-03-01T02:04:05;101910.69;;;-1.84
24586;BMP280;12743;52.262;6.172;2023-03-01T02:06:47;101927.22;;;-1.60
24586;BMP280;12743;52.262;6.172;2023-03-01T02:09:19;101812.53;;;-2.52
24586;BMP280;12743;52.262;6.172;2023-03-01T02:11:48;101896.25;;;-1.98
24586;BMP280;12743;52.262;6.172;2023-03-01T02:14:16;102047.81;;;-0.93
24586;BMP280;12743;52.262;6.172;2023-03-01T02:16:43;101963.13;;;-1.72
24586;BMP280;12743;52.262;6.172;2023-03-01T02:19:44;101921.75;;;-1.77
24586;BMP280;12743;52.262;6.172;2023-03-01T02:27:11;101961.59;;;-1.41
24586;BMP280;12743;52.262;6.172;2023-03-01T02:29:38;102029.31;;;-1.21
24586;BMP280;12743;52.262;6.172;2023-03-01T02:32:05;101922.78;;;-1.84
24586;BMP280;12743;52.262;6.172;2023-03-01T02:34:33;101964.19;;;-1.48
24586;BMP280;12743;52.262;6.172;2023-03-01T02:37:07;102050.28;;;-1.11
24586;BMP280;12743;52.262;6.172;2023-03-01T02:39:47;101797.53;;;-2.74
24586;BMP280;12743;52.262;6.172;2023-03-01T02:42:26;102002.78;;;-1.28
24586;BMP280;12743;52.262;6.172;2023-03-01T02:44:55;101776.22;;;-2.88
24586;BMP280;12743;52.262;6.172;2023-03-01T02:47:22;102014.03;;;-1.16
24586;BMP280;12743;52.262;6.172;2023-03-01T02:49:49;101826.34;;;-2.39
24586;BMP280;12743;52.262;6.172;2023-03-01T02:52:51;102012.63;;;-1.19
24586;BMP280;12743;52.262;6.172;2023-03-01T02:55:20;101849.22;;;-2.18
24586;BMP280;12743;52.262;6.172;2023-03-01T02:57:48;101986.06;;;-1.19
24586;BMP280;12743;52.262;6.172;2023-03-01T03:00:23;101993.44;;;-1.23
24586;BMP280;12743;52.262;6.172;2023-03-01T03:02:53;101940.41;;;-1.43
24586;BMP280;12743;52.262;6.172;2023-03-01T03:05:30;101919.50;;;-1.60
24586;BMP280;12743;52.262;6.172;2023-03-01T03:07:58;101923.22;;;-1.49
24586;BMP280;12743;52.262;6.172;2023-03-01T03:10:28;101893.63;;;-1.78
24586;BMP280;12743;52.262;6.172;2023-03-01T03:13:04;101779.72;;;-2.63
24586;BMP280;12743;52.262;6.172;2023-03-01T03:15:32;101713.38;;;-2.92
24586;BMP280;12743;52.262;6.172;2023-03-01T03:18:04;101724.25;;;-3.10
24586;BMP280;12743;52.262;6.172;2023-03-01T03:20:32;101899.41;;;-1.89
24586;BMP280;12743;52.262;6.172;2023-03-01T03:22:59;101833.44;;;-2.28
24586;BMP280;12743;52.262;6.172;2023-03-01T03:25:27;101968.28;;;-1.34
24586;BMP280;12743;52.262;6.172;2023-03-01T03:27:55;101882.03;;;-2.00
24586;BMP280;12743;52.262;6.172;2023-03-01T03:30:30;101957.22;;;-1.41
24586;BMP280;12743;52.262;6.172;2023-03-01T03:32:58;101931.16;;;-1.58
24586;BMP280;12743;52.262;6.172;2023-03-01T03:35:43;101879.38;;;-1.87
24586;BMP280;12743;52.262;6.172;2023-03-01T03:38:12;101951.50;;;-1.43
24586;BMP280;12743;52.262;6.172;2023-03-01T03:41:03;101678.22;;;-3.11
24586;BMP280;12743;52.262;6.172;2023-03-01T03:43:32;101803.16;;;-2.33
24586;BMP280;12743;52.262;6.172;2023-03-01T03:45:59;101946.00;;;-1.53
24586;BMP280;12743;52.262;6.172;2023-03-01T03:48:27;101780.53;;;-2.69
24586;BMP280;12743;52.262;6.172;2023-03-01T03:50:55;101673.31;;;-3.32
24586;BMP280;12743;52.262;6.172;2023-03-01T03:53:23;101802.84;;;-2.56
24586;BMP280;12743;52.262;6.172;2023-03-01T03:55:50;101858.38;;;-2.22
24586;BMP280;12743;52.262;6.172;2023-03-01T03:58:19;101899.41;;;-1.89
24586;BMP280;12743;52.262;6.172;2023-03-01T04:00:48;101890.69;;;-1.95
24586;BMP280;12743;52.262;6.172;2023-03-01T04:03:16;101838.78;;;-2.23
24586;BMP280;12743;52.262;6.172;2023-03-01T04:05:43;101921.09;;;-1.66
24586;BMP280;12743;52.262;6.172;2023-03-01T04:08:10;101869.91;;;-1.93
24586;BMP280;12743;52.262;6.172;2023-03-01T04:10:40;101752.88;;;-2.80
24586;BMP280;12743;52.262;6.172;2023-03-01T04:13:11;101791.88;;;-2.38
24586;BMP280;12743;52.262;6.172;2023-03-01T04:15:39;101773.81;;;-2.70
24586;BMP280;12743;52.262;6.172;2023-03-01T04:18:06;101738.84;;;-2.84
24586;BMP280;12743;52.262;6.172;2023-03-01T04:20:35;101693.44;;;-3.10
24586;BMP280;12743;52.262;6.172;2023-03-01T04:23:07;101819.59;;;-2.34
24586;BMP280;12743;52.262;6.172;2023-03-01T04:25:51;101826.94;;;-2.44
24586;BMP280;12743;52.262;6.172;2023-03-01T04:30:57;101904.06;;;-1.67
24586;BMP280;12743;52.262;6.172;2023-03-01T04:33:25;101871.13;;;-1.96
24586;BMP280;12743;52.262;6.172;2023-03-01T04:35:52;101792.97;;;-2.53
24586;BMP280;12743;52.262;6.172;2023-03-01T04:38:20;101690.88;;;-3.23
24586;BMP280;12743;52.262;6.172;2023-03-01T04:40:48;101767.31;;;-2.79
24586;BMP280;12743;52.262;6.172;2023-03-01T04:43:15;101752.88;;;-2.80
24586;BMP280;12743;52.262;6.172;2023-03-01T04:45:42;101762.31;;;-2.67
24586;BMP280;12743;52.262;6.172;2023-03-01T04:48:09;101671.72;;;-3.20
24586;BMP280;12743;52.262;6.172;2023-03-01T04:50:36;101846.78;;;-2.00
24586;BMP280;12743;52.262;6.172;2023-03-01T04:53:03;101686.91;;;-3.06
24586;BMP280;12743;52.262;6.172;2023-03-01T04:55:29;101600.66;;;-3.53
24586;BMP280;12743;52.262;6.172;2023-03-01T04:57:56;101728.78;;;-2.85
24586;BMP280;12743;52.262;6.172;2023-03-01T05:00:30;101783.56;;;-2.34
24586;BMP280;12743;52.262;6.172;2023-03-01T05:02:59;101710.38;;;-2.82
24586;BMP280;12743;52.262;6.172;2023-03-01T05:05:29;101860.00;;;-1.90
24586;BMP280;12743;52.262;6.172;2023-03-01T05:07:59;101724.34;;;-2.72
24586;BMP280;12743;52.262;6.172;2023-03-01T05:10:28;101703.25;;;-2.87
24586;BMP280;12743;52.262;6.172;2023-03-01T05:12:59;101685.88;;;-2.91
24586;BMP280;12743;52.262;6.172;2023-03-01T05:15:27;101664.19;;;-3.09
24586;BMP280;12743;52.262;6.172;2023-03-01T05:17:55;101662.81;;;-3.18
24586;BMP280;12743;52.262;6.172;2023-03-01T05:20:29;101564.56;;;-3.71
24586;BMP280;12743;52.262;6.172;2023-03-01T05:22:58;101780.41;;;-2.29
24586;BMP280;12743;52.262;6.172;2023-03-01T05:25:26;101784.13;;;-2.25
24586;BMP280;12743;52.262;6.172;2023-03-01T05:27:53;101611.31;;;-3.49
24586;BMP280;12743;52.262;6.172;2023-03-01T05:30:19;101623.56;;;-3.58
24586;BMP280;12743;52.262;6.172;2023-03-01T05:32:53;101528.06;;;-4.06
24586;BMP280;12743;52.262;6.172;2023-03-01T05:35:22;101567.34;;;-3.85
24586;BMP280;12743;52.262;6.172;2023-03-01T05:37:50;101776.28;;;-2.43
24586;BMP280;12743;52.262;6.172;2023-03-01T05:40:19;101663.59;;;-3.17
24586;BMP280;12743;52.262;6.172;2023-03-01T05:42:48;101588.84;;;-3.80
24586;BMP280;12743;52.262;6.172;2023-03-01T05:45:16;101609.53;;;-3.48
24586;BMP280;12743;52.262;6.172;2023-03-01T05:47:45;101784.13;;;-2.25
24586;BMP280;12743;52.262;6.172;2023-03-01T05:50:20;101575.44;;;-3.69
24586;BMP280;12743;52.262;6.172;2023-03-01T05:52:58;101752.00;;;-2.54
24586;BMP280;12743;52.262;6.172;2023-03-01T05:55:26;101780.00;;;-2.33
24586;BMP280;12743;52.262;6.172;2023-03-01T05:58:05;101527.28;;;-3.93
24586;BMP280;12743;52.262;6.172;2023-03-01T06:00:34;101684.75;;;-3.22
24586;BMP280;12743;52.262;6.172;2023-03-01T06:03:01;101710.41;;;-3.02
24586;BMP280;12743;52.262;6.172;2023-03-01T06:05:29;101619.22;;;-3.44
24586;BMP280;12743;52.262;6.172;2023-03-01T06:07:59;101709.25;;;-3.13
24586;BMP280;12743;52.262;6.172;2023-03-01T06:10:26;101549.59;;;-4.13
24586;BMP280;12743;52.262;6.172;2023-03-01T06:12:53;101683.38;;;-3.18
24586;BMP280;12743;52.262;6.172;2023-03-01T06:15:21;101512.69;;;-4.12
24586;BMP280;12743;52.262;6.172;2023-03-01T06:17:48;101795.66;;;-2.41
24586;BMP280;12743;52.262;6.172;2023-03-01T06:20:21;101729.97;;;-3.01
24586;BMP280;12743;52.262;6.172;2023-03-01T06:22:51;101814.47;;;-2.40
24586;BMP280;12743;52.262;6.172;2023-03-01T06:25:20;101780.88;;;-2.65
24586;BMP280;12743;52.262;6.172;2023-03-01T06:27:48;101752.06;;;-2.80
24586;BMP280;12743;52.262;6.172;2023-03-01T06:30:16;101634.06;;;-3.66
24586;BMP280;12743;52.262;6.172;2023-03-01T06:32:44;101697.78;;;-3.23
24586;BMP280;12743;52.262;6.172;2023-03-01T06:35:13;101790.75;;;-2.42
24586;BMP280;12743;52.262;6.172;2023-03-01T06:37:49;101509.72;;;-4.16
24586;BMP280;12743;52.262;6.172;2023-03-01T06:40:18;101564.16;;;-3.94
24586;BMP280;12743;52.262;6.172;2023-03-01T06:42:49;101681.91;;;-2.94
24586;BMP280;12743;52.262;6.172;2023-03-01T06:45:18;101745.22;;;-2.42
24586;BMP280;12743;52.262;6.172;2023-03-01T06:47:46;101605.03;;;-3.66
24586;BMP280;12743;52.262;6.172;2023-03-01T06:50:20;101662.81;;;-3.24
24586;BMP280;12743;52.262;6.172;2023-03-01T06:52:47;101735.44;;;-2.78
24586;BMP280;12743;52.262;6.172;2023-03-01T06:55:13;101546.03;;;-3.92
24586;BMP280;12743;52.262;6.172;2023-03-01T06:57:48;101786.75;;;-2.38
24586;BMP280;12743;52.262;6.172;2023-03-01T07:00:16;101777.66;;;-2.41
24586;BMP280;12743;52.262;6.172;2023-03-01T07:02:42;101721.44;;;-2.75
24586;BMP280;12743;52.262;6.172;2023-03-01T07:05:09;101761.72;;;-2.56
24586;BMP280;12743;52.262;6.172;2023-03-01T07:07:36;101692.81;;;-2.92
24586;BMP280;12743;52.262;6.172;2023-03-01T07:10:03;101504.59;;;-4.09
24586;BMP280;12743;52.262;6.172;2023-03-01T07:12:30;101615.22;;;-3.27
24586;BMP280;12743;52.262;6.172;2023-03-01T07:14:56;101529.44;;;-3.83
24586;BMP280;12743;52.262;6.172;2023-03-01T07:17:23;101630.78;;;-3.09
24586;BMP280;12743;52.262;6.172;2023-03-01T07:19:50;101683.22;;;-2.72
24586;BMP280;12743;52.262;6.172;2023-03-01T07:22:16;101791.97;;;-2.07
24586;BMP280;12743;52.262;6.172;2023-03-01T07:24:43;101747.97;;;-2.37
24586;BMP280;12743;52.262;6.172;2023-03-01T07:27:10;101641.78;;;-2.95
24586;BMP280;12743;52.262;6.172;2023-03-01T07:29:37;101579.09;;;-3.32
24586;BMP280;12743;52.262;6.172;2023-03-01T07:32:04;101761.66;;;-2.05
24586;BMP280;12743;52.262;6.172;2023-03-01T07:34:31;101660.69;;;-2.70
24586;BMP280;12743;52.262;6.172;2023-03-01T07:36:58;101529.34;;;-3.51
24586;BMP280;12743;52.262;6.172;2023-03-01T07:39:25;101623.56;;;-2.80
24586;BMP280;12743;52.262;6.172;2023-03-01T07:41:52;101722.47;;;-2.07
24586;BMP280;12743;52.262;6.172;2023-03-01T07:44:21;101687.78;;;-2.29
24586;BMP280;12743;52.262;6.172;2023-03-01T07:46:48;101674.78;;;-2.41
24586;BMP280;12743;52.262;6.172;2023-03-01T07:49:20;101843.88;;;-1.41
24586;BMP280;12743;52.262;6.172;2023-03-01T07:51:47;101571.66;;;-3.02
24586;BMP280;12743;52.262;6.172;2023-03-01T07:54:14;101712.38;;;-2.09
24586;BMP280;12743;52.262;6.172;2023-03-01T07:56:40;101822.81;;;-1.31
24586;BMP280;12743;52.262;6.172;2023-03-01T07:59:07;101845.16;;;-1.25
24586;BMP280;12743;52.262;6.172;2023-03-01T08:01:34;101693.69;;;-2.22
24586;BMP280;12743;52.262;6.172;2023-03-01T08:04:03;101751.09;;;-1.90
24586;BMP280;12743;52.262;6.172;2023-03-01T08:06:35;101883.75;;;-0.94
24586;BMP280;12743;52.262;6.172;2023-03-01T08:09:02;101910.53;;;-0.70
24586;BMP280;12743;52.262;6.172;2023-03-01T08:11:29;101756.31;;;-1.72
24586;BMP280;12743;52.262;6.172;2023-03-01T08:13:56;101680.19;;;-2.18
24586;BMP280;12743;52.262;6.172;2023-03-01T08:16:24;101809.81;;;-1.43
24586;BMP280;12743;52.262;6.172;2023-03-01T08:18:54;101776.25;;;-1.36
24586;BMP280;12743;52.262;6.172;2023-03-01T08:21:23;101789.06;;;-1.23
24586;BMP280;12743;52.262;6.172;2023-03-01T08:23:49;101967.81;;;-0.01
24586;BMP280;12743;52.262;6.172;2023-03-01T08:26:18;101951.31;;;0.19
24586;BMP280;12743;52.262;6.172;2023-03-01T08:28:46;101887.25;;;-0.45
24586;BMP280;12743;52.262;6.172;2023-03-01T08:33:47;101943.63;;;0.12
24586;BMP280;12743;52.262;6.172;2023-03-01T08:36:26;101953.25;;;-0.13
24586;BMP280;12743;52.262;6.172;2023-03-01T08:38:54;101796.03;;;-0.87
24586;BMP280;12743;52.262;6.172;2023-03-01T08:41:21;102009.03;;;0.72
24586;BMP280;12743;52.262;6.172;2023-03-01T08:43:48;101875.50;;;-0.05
24586;BMP280;12743;52.262;6.172;2023-03-01T08:46:15;101885.06;;;-0.24
24586;BMP280;12743;52.262;6.172;2023-03-01T08:48:45;102009.75;;;0.49
24586;BMP280;12743;52.262;6.172;2023-03-01T08:51:15;102072.84;;;0.90
24586;BMP280;12743;52.262;6.172;2023-03-01T08:53:43;102007.84;;;0.57
24586;BMP280;12743;52.262;6.172;2023-03-01T08:56:10;102078.78;;;1.20
24586;BMP280;12743;52.262;6.172;2023-03-01T08:58:37;102094.50;;;1.60
24586;BMP280;12743;52.262;6.172;2023-03-01T09:01:11;101878.53;;;-0.08
24586;BMP280;12743;52.262;6.172;2023-03-01T09:03:42;101986.38;;;0.86
24586;BMP280;12743;52.262;6.172;2023-03-01T09:06:17;101995.19;;;1.08
24586;BMP280;12743;52.262;6.172;2023-03-01T09:08:54;102039.53;;;1.35
24586;BMP280;12743;52.262;6.172;2023-03-01T09:11:21;101993.88;;;1.29
24586;BMP280;12743;52.262;6.172;2023-03-01T09:13:50;102059.59;;;1.51
24586;BMP280;12743;52.262;6.172;2023-03-01T09:16:29;102077.91;;;1.96
24586;BMP280;12743;52.262;6.172;2023-03-01T09:19:00;102025.63;;;1.59
24586;BMP280;12743;52.262;6.172;2023-03-01T09:21:27;102233.50;;;2.70
24586;BMP280;12743;52.262;6.172;2023-03-01T09:24:12;101961.44;;;1.38
24586;BMP280;12743;52.262;6.172;2023-03-01T09:26:40;102102.66;;;2.38
24586;BMP280;12743;52.262;6.172;2023-03-01T09:29:07;102214.59;;;2.58
24586;BMP280;12743;52.262;6.172;2023-03-01T09:31:35;102199.91;;;3.04
24586;BMP280;12743;52.262;6.172;2023-03-01T09:34:03;102166.44;;;2.39
24586;BMP280;12743;52.262;6.172;2023-03-01T09:36:30;102088.50;;;2.18
24586;BMP280;12743;52.262;6.172;2023-03-01T09:38:57;102121.66;;;2.04
24586;BMP280;12743;52.262;6.172;2023-03-01T09:47:00;102267.84;;;3.29
24586;BMP280;12743;52.262;6.172;2023-03-01T09:49:28;102283.25;;;3.47
24586;BMP280;12743;52.262;6.172;2023-03-01T09:54:23;102231.63;;;2.94
24586;BMP280;12743;52.262;6.172;2023-03-01T10:02:30;102280.25;;;2.99
24586;BMP280;12743;52.262;6.172;2023-03-01T10:05:14;102309.31;;;3.52
24586;BMP280;12743;52.262;6.172;2023-03-01T10:10:55;102297.78;;;3.60
24586;BMP280;12743;52.262;6.172;2023-03-01T10:13:33;102335.34;;;4.30
24586;BMP280;12743;52.262;6.172;2023-03-01T10:16:27;102277.78;;;3.60
24586;BMP280;12743;52.262;6.172;2023-03-01T10:18:59;102146.84;;;2.43
24586;BMP280;12743;52.262;6.172;2023-03-01T10:21:27;102269.78;;;3.22
24586;BMP280;12743;52.262;6.172;2023-03-01T10:24:08;102310.66;;;4.00
24586;BMP280;12743;52.262;6.172;2023-03-01T10:26:48;102240.06;;;3.13
24586;BMP280;12743;52.262;6.172;2023-03-01T10:29:18;102273.53;;;3.54
24586;BMP280;12743;52.262;6.172;2023-03-01T10:31:52;102276.66;;;3.56
24586;BMP280;12743;52.262;6.172;2023-03-01T10:34:29;102274.53;;;3.53
24586;BMP280;12743;52.262;6.172;2023-03-01T10:37:01;102298.78;;;3.87
24586;BMP280;12743;52.262;6.172;2023-03-01T10:39:35;102332.00;;;4.02
24586;BMP280;12743;52.262;6.172;2023-03-01T10:42:13;102204.38;;;3.20
24586;BMP280;12743;52.262;6.172;2023-03-01T10:44:47;102279.13;;;3.79
24586;BMP280;12743;52.262;6.172;2023-03-01T10:47:16;102366.09;;;4.33
24586;BMP280;12743;52.262;6.172;2023-03-01T10:50:01;102329.50;;;4.07
24586;BMP280;12743;52.262;6.172;2023-03-01T10:52:36;102325.69;;;4.14
24586;BMP280;12743;52.262;6.172;2023-03-01T10:57:40;102170.38;;;3.38
24586;BMP280;12743;52.262;6.172;2023-03-01T11:02:49;102325.25;;;3.84
24586;BMP280;12743;52.262;6.172;2023-03-01T11:05:21;102224.34;;;3.19
24586;BMP280;12743;52.262;6.172;2023-03-01T11:08:13;102359.78;;;4.13
24586;BMP280;12743;52.262;6.172;2023-03-01T11:10:40;102360.38;;;4.03
24586;BMP280;12743;52.262;6.172;2023-03-01T11:13:19;102357.47;;;4.16
24586;BMP280;12743;52.262;6.172;2023-03-01T11:16:06;102339.44;;;4.10
24586;BMP280;12743;52.262;6.172;2023-03-01T11:18:34;102318.97;;;3.68
24586;BMP280;12743;52.262;6.172;2023-03-01T11:21:15;102204.63;;;3.07
24586;BMP280;12743;52.262;6.172;2023-03-01T11:23:42;102303.78;;;3.60
24586;BMP280;12743;52.262;6.172;2023-03-01T11:26:09;102292.78;;;3.87
24586;BMP280;12743;52.262;6.172;2023-03-01T11:28:40;102358.34;;;4.22
24586;BMP280;12743;52.262;6.172;2023-03-01T11:31:10;102340.78;;;4.12
24586;BMP280;12743;52.262;6.172;2023-03-01T11:33:44;102355.59;;;4.28
24586;BMP280;12743;52.262;6.172;2023-03-01T11:36:44;102360.72;;;4.40
24586;BMP280;12743;52.262;6.172;2023-03-01T11:39:29;102331.22;;;4.18
24586;BMP280;12743;52.262;6.172;2023-03-01T11:44:48;102261.75;;;3.80
24586;BMP280;12743;52.262;6.172;2023-03-01T11:47:32;102340.59;;;4.35
24586;BMP280;12743;52.262;6.172;2023-03-01T11:53:00;102334.13;;;4.38
24586;BMP280;12743;52.262;6.172;2023-03-01T11:55:53;102330.66;;;4.49
24586;BMP280;12743;52.262;6.172;2023-03-01T11:58:43;102343.28;;;4.40
24586;BMP280;12743;52.262;6.172;2023-03-01T12:01:38;102348.03;;;4.44
24586;BMP280;12743;52.262;6.172;2023-03-01T12:06:52;102267.00;;;4.02
24586;BMP280;12743;52.262;6.172;2023-03-01T12:12:27;102205.59;;;3.62
24586;BMP280;12743;52.262;6.172;2023-03-01T12:15:37;102335.44;;;4.57
24586;BMP280;12743;52.262;6.172;2023-03-01T12:24:37;102334.16;;;4.76
24586;BMP280;12743;52.262;6.172;2023-03-01T12:29:55;102332.03;;;4.73
24586;BMP280;12743;52.262;6.172;2023-03-01T12:32:40;102199.69;;;3.83
24586;BMP280;12743;52.262;6.172;2023-03-01T12:35:36;102321.09;;;4.71
24586;BMP280;12743;52.262;6.172;2023-03-01T12:43:55;102316.69;;;4.93
24586;BMP280;12743;52.262;6.172;2023-03-01T12:46:32;102318.06;;;4.79
24586;BMP280;12743;52.262;6.172;2023-03-01T12:51:57;102122.56;;;3.67
24586;BMP280;12743;52.262;6.172;2023-03-01T12:54:33;102157.97;;;4.12
24586;BMP280;12743;52.262;6.172;2023-03-01T12:57:23;102224.66;;;4.39
24586;BMP280;12743;52.262;6.172;2023-03-01T13:02:59;102286.25;;;5.21
24586;BMP280;12743;52.262;6.172;2023-03-01T13:05:42;102276.28;;;5.39
24586;BMP280;12743;52.262;6.172;2023-03-01T13:11:01;102287.44;;;5.40
24586;BMP280;12743;52.262;6.172;2023-03-01T13:13:30;102020.22;;;3.73
24586;BMP280;12743;52.262;6.172;2023-03-01T13:19:21;102151.56;;;4.63
24586;BMP280;12743;52.262;6.172;2023-03-01T13:21:51;102268.16;;;5.36
24586;BMP280;12743;52.262;6.172;2023-03-01T13:24:40;102150.81;;;4.67
24586;BMP280;12743;52.262;6.172;2023-03-01T13:29:53;102163.06;;;4.93
24586;BMP280;12743;52.262;6.172;2023-03-01T13:32:25;102008.19;;;4.11
24586;BMP280;12743;52.262;6.172;2023-03-01T13:37:37;102165.91;;;5.19
24586;BMP280;12743;52.262;6.172;2023-03-01T13:42:53;102096.13;;;4.89
24586;BMP280;12743;52.262;6.172;2023-03-01T13:45:33;102225.06;;;5.92
24586;BMP280;12743;52.262;6.172;2023-03-01T13:48:09;102166.13;;;5.49
24586;BMP280;12743;52.262;6.172;2023-03-01T13:50:46;102154.56;;;5.35
24586;BMP280;12743;52.262;6.172;2023-03-01T13:53:19;102144.88;;;5.30
24586;BMP280;12743;52.262;6.172;2023-03-01T13:55:55;102113.00;;;5.18
24586;BMP280;12743;52.262;6.172;2023-03-01T13:58:27;102222.75;;;6.00
24586;BMP280;12743;52.262;6.172;2023-03-01T14:00:56;101987.97;;;4.45
24586;BMP280;12743;52.262;6.172;2023-03-01T14:03:24;102215.25;;;6.09
24586;BMP280;12743;52.262;6.172;2023-03-01T14:06:14;102163.22;;;5.82
24586;BMP280;12743;52.262;6.172;2023-03-01T14:08:48;102193.06;;;6.06
24586;BMP280;12743;52.262;6.172;2023-03-01T14:14:07;102196.88;;;6.41
24586;BMP280;12743;52.262;6.172;2023-03-01T14:17:03;102073.16;;;5.59
24586;BMP280;12743;52.262;6.172;2023-03-01T14:19:36;101956.34;;;4.89
24586;BMP280;12743;52.262;6.172;2023-03-01T14:22:23;102179.66;;;6.50
24586;BMP280;12743;52.262;6.172;2023-03-01T14:24:56;102170.56;;;6.67
24586;BMP280;12743;52.262;6.172;2023-03-01T14:27:36;102101.25;;;6.04
24586;BMP280;12743;52.262;6.172;2023-03-01T14:30:27;102116.22;;;6.39
24586;BMP280;12743;52.262;6.172;2023-03-01T14:32:59;102102.34;;;6.24
24586;BMP280;12743;52.262;6.172;2023-03-01T14:35:31;102056.63;;;6.01
24586;BMP280;12743;52.262;6.172;2023-03-01T14:37:59;101914.19;;;4.97
24586;BMP280;12743;52.262;6.172;2023-03-01T14:40:35;102143.09;;;6.45
24586;BMP280;12743;52.262;6.172;2023-03-01T14:43:09;102083.78;;;6.15
24586;BMP280;12743;52.262;6.172;2023-03-01T14:45:36;102139.72;;;6.59
24586;BMP280;12743;52.262;6.172;2023-03-01T14:48:05;102077.34;;;6.38
24586;BMP280;12743;52.262;6.172;2023-03-01T14:50:41;102134.84;;;6.88
24586;BMP280;12743;52.262;6.172;2023-03-01T14:53:17;102139.47;;;6.51
24586;BMP280;12743;52.262;6.172;2023-03-01T14:55:47;102044.34;;;5.91
24586;BMP280;12743;52.262;6.172;2023-03-01T14:58:20;101899.06;;;4.94
24586;BMP280;12743;52.262;6.172;2023-03-01T15:01:02;102001.31;;;5.84
24586;BMP280;12743;52.262;6.172;2023-03-01T15:03:33;102138.72;;;6.96
24586;BMP280;12743;52.262;6.172;2023-03-01T15:06:02;102004.50;;;6.06
24586;BMP280;12743;52.262;6.172;2023-03-01T15:08:33;102006.25;;;5.85
24586;BMP280;12743;52.262;6.172;2023-03-01T15:13:40;101943.53;;;5.40
24586;BMP280;12743;52.262;6.172;2023-03-01T15:16:16;102119.41;;;6.61
24586;BMP280;12743;52.262;6.172;2023-03-01T15:18:52;102062.72;;;6.32
24586;BMP280;12743;52.262;6.172;2023-03-01T15:21:25;102122.25;;;6.55
24586;BMP280;12743;52.262;6.172;2023-03-01T15:24:16;101942.59;;;5.04
24586;BMP280;12743;52.262;6.172;2023-03-01T15:26:52;101992.72;;;5.26
24586;BMP280;12743;52.262;6.172;2023-03-01T15:29:34;102011.25;;;5.30
24586;BMP280;12743;52.262;6.172;2023-03-01T15:34:51;101948.97;;;4.81
24586;BMP280;12743;52.262;6.172;2023-03-01T15:40:24;101864.38;;;4.37
24586;BMP280;12743;52.262;6.172;2023-03-01T15:42:58;101854.13;;;4.25
24586;BMP280;12743;52.262;6.172;2023-03-01T15:45:31;102114.47;;;5.83
24586;BMP280;12743;52.262;6.172;2023-03-01T15:48:05;101905.78;;;4.44
24586;BMP280;12743;52.262;6.172;2023-03-01T15:50:40;101974.25;;;4.91
24586;BMP280;12743;52.262;6.172;2023-03-01T15:53:13;101930.59;;;4.61
24586;BMP280;12743;52.262;6.172;2023-03-01T15:55:41;102014.97;;;5.07
24586;BMP280;12743;52.262;6.172;2023-03-01T15:58:19;101901.72;;;4.26